Time;durP1;ratioP1;P1;durP2;ratioP2;P2;SDS_P1;SDS_P2;PMS_P1;PMS_P2;Temp;Humidity;BMP_temperature;BMP_pressure;BME280_temperature;BME280_humidity;BME280_pressure;Samples;Min_cycle;Max_cycle;Signal;HPM_P1;HPM_P2
2021/09/14 00:02:15;;;;;;;;;;;;;;;18.96;59.08;101614.81;4997121;28;96925;-78
2021/09/14 00:04:41;;;;;;;;;;;;;;;18.97;58.89;101621.91;4993873;28;100609;-77
2021/09/14 00:07:09;;;;;;;;;;;;;;;19.01;58.70;101618.94;4979786;28;99148;-78
2021/09/14 00:09:35;;;;;;;;;;;;;;;18.88;59.05;101620.59;4995544;28;97067;-78
2021/09/14 00:12:01;;;;;;;;;;;;;;;18.86;59.25;101626.97;4999805;28;96827;-78
2021/09/14 00:14:28;;;;;;;;;;;;;;;18.85;59.32;101620.75;4995186;28;98850;-78
2021/09/14 00:16:54;;;;;;;;;;;;;;;18.98;58.96;101627.13;4994979;28;99308;-77
2021/09/14 00:19:20;;;;;;;;;;;;;;;18.94;59.17;101627.41;4982545;28;97618;-78
2021/09/14 00:21:47;;;;;;;;;;;;;;;19.00;58.69;101622.56;4986833;28;96838;-77
2021/09/14 00:24:14;;;;;;;;;;;;;;;18.96;58.72;101621.03;5003962;28;99687;-77
2021/09/14 00:26:41;;;;;;;;;;;;;;;19.08;58.47;101616.78;4995478;28;98819;-78
2021/09/14 00:29:07;;;;;;;;;;;;;;;19.02;58.73;101620.69;4981043;28;96788;-78
2021/09/14 00:31:33;;;;;;;;;;;;;;;19.11;59.12;101611.22;4980818;28;97849;-78
2021/09/14 00:34:00;;;;;;;;;;;;;;;19.25;58.54;101610.44;4994148;28;98944;-77
2021/09/14 00:36:26;;;;;;;;;;;;;;;19.32;57.65;101603.78;4997311;28;99432;-78
2021/09/14 00:38:52;;;;;;;;;;;;;;;19.29;57.89;101595.94;4996127;28;96812;-77
2021/09/14 00:41:20;;;;;;;;;;;;;;;19.35;57.90;101600.94;4994525;28;97106;-78
2021/09/14 00:43:54;;;;;;;;;;;;;;;19.32;57.57;101604.63;4995938;28;98420;-78
2021/09/14 00:46:21;;;;;;;;;;;;;;;19.27;57.51;101612.09;4994972;28;100651;-78
2021/09/14 00:48:47;;;;;;;;;;;;;;;19.01;58.70;101602.00;4998276;28;96759;-78
2021/09/14 00:51:13;;;;;;;;;;;;;;;19.10;58.74;101601.47;4999202;28;98971;-79
2021/09/14 00:53:40;;;;;;;;;;;;;;;19.04;58.59;101602.69;4998849;28;99358;-80
2021/09/14 00:56:06;;;;;;;;;;;;;;;19.02;58.33;101606.41;4998267;28;96958;-78
2021/09/14 00:58:34;;;;;;;;;;;;;;;19.17;58.12;101602.84;4998638;28;96865;-79
2021/09/14 01:01:00;;;;;;;;;;;;;;;19.07;58.36;101604.34;4999343;28;96884;-79
2021/09/14 01:03:26;;;;;;;;;;;;;;;19.07;58.00;101601.66;4998673;28;100512;-79
2021/09/14 01:05:53;;;;;;;;;;;;;;;19.12;57.66;101602.25;4986133;28;99572;-79
2021/09/14 01:08:20;;;;;;;;;;;;;;;19.02;58.39;101595.72;5001506;28;96997;-78
2021/09/14 01:10:46;;;;;;;;;;;;;;;19.08;58.25;101598.03;4998693;28;96889;-78
2021/09/14 01:13:12;;;;;;;;;;;;;;;18.89;58.53;101592.88;4999187;28;98060;-79
2021/09/14 01:15:40;;;;;;;;;;;;;;;18.83;59.25;101595.91;4998005;28;98852;-79
2021/09/14 01:18:06;;;;;;;;;;;;;;;18.81;59.50;101592.44;4999859;28;97046;-79
2021/09/14 01:20:33;;;;;;;;;;;;;;;18.84;58.97;101596.75;4997915;28;97049;-79
2021/09/14 01:23:00;;;;;;;;;;;;;;;18.79;59.19;101588.97;4998521;28;99217;-78
2021/09/14 01:25:26;;;;;;;;;;;;;;;18.77;59.12;101592.69;4995865;28;98758;-78
2021/09/14 01:27:56;;;;;;;;;;;;;;;18.66;59.35;101594.16;4982549;28;97214;-79
2021/09/14 01:30:22;;;;;;;;;;;;;;;18.68;59.81;101586.91;4998084;28;96842;-79
2021/09/14 01:32:50;;;;;;;;;;;;;;;18.74;59.39;101588.38;4998147;28;99288;-78
2021/09/14 01:35:17;;;;;;;;;;;;;;;18.69;59.40;101582.41;4997096;28;99188;-79
2021/09/14 01:37:43;;;;;;;;;;;;;;;18.64;59.28;101587.16;5000036;28;97010;-79
2021/09/14 01:40:11;;;;;;;;;;;;;;;18.53;59.60;101585.03;4998989;28;96795;-77
2021/09/14 01:42:38;;;;;;;;;;;;;;;18.49;59.66;101588.84;4998661;28;99033;-79
2021/09/14 01:45:05;;;;;;;;;;;;;;;18.54;59.35;101594.78;4999239;28;97603;-78
2021/09/14 01:47:31;;;;;;;;;;;;;;;18.58;59.48;101595.50;5005169;28;97076;-78
2021/09/14 01:49:57;;;;;;;;;;;;;;;18.64;59.14;101593.34;5002884;28;96801;-77
2021/09/14 01:52:26;;;;;;;;;;;;;;;18.60;59.35;101594.50;4997179;28;98873;-78
2021/09/14 01:54:52;;;;;;;;;;;;;;;18.57;59.47;101589.31;4996404;28;99100;-77
2021/09/14 01:57:22;;;;;;;;;;;;;;;18.61;59.07;101593.53;4997240;28;96868;-79
2021/09/14 01:59:51;;;;;;;;;;;;;;;18.64;59.21;101588.00;4979044;28;96699;-78
2021/09/14 02:02:25;;;;;;;;;;;;;;;18.63;59.03;101588.13;4977034;28;98963;-79
2021/09/14 02:04:56;;;;;;;;;;;;;;;18.70;58.95;101587.69;4977941;28;98785;-78
2021/09/14 02:07:35;;;;;;;;;;;;;;;18.73;58.92;101589.31;4977678;28;98838;-78
2021/09/14 02:24:01;;;;;;;;;;;;;;;18.70;58.92;101584.16;4992910;28;98909;-78
2021/09/14 02:40:22;;;;;;;;;;;;;;;18.36;59.92;101581.56;4998997;28;96661;-78
2021/09/14 02:43:01;;;;;;;;;;;;;;;18.35;60.12;101580.69;4997005;28;99173;-79
2021/09/14 02:56:44;;;;;;;;;;;;;;;18.20;60.49;101576.16;4975726;28;97180;-78
2021/09/14 02:59:09;;;;;;;;;;;;;;;18.18;60.36;101567.38;4977224;28;99203;-79
2021/09/14 03:01:36;;;;;;;;;;;;;;;18.35;59.78;101569.13;4992123;28;96747;-78
2021/09/14 03:04:05;;;;;;;;;;;;;;;18.20;59.88;101568.16;4997749;28;96823;-78
2021/09/14 03:06:31;;;;;;;;;;;;;;;18.24;59.98;101567.06;4996621;28;98567;-78
2021/09/14 03:08:57;;;;;;;;;;;;;;;18.23;60.10;101565.31;4999891;28;97774;-77
2021/09/14 03:11:24;;;;;;;;;;;;;;;18.14;60.54;101569.34;5005485;28;96708;-78
2021/09/14 03:13:50;;;;;;;;;;;;;;;18.10;60.48;101567.78;4984526;28;96874;-77
2021/09/14 03:16:16;;;;;;;;;;;;;;;18.20;60.13;101573.50;5007355;28;97714;-78
2021/09/14 03:18:44;;;;;;;;;;;;;;;18.16;59.89;101558.56;5012504;28;98758;-77
2021/09/14 03:21:12;;;;;;;;;;;;;;;18.12;59.94;101565.00;5017623;28;96533;-78
2021/09/14 03:23:38;;;;;;;;;;;;;;;18.10;60.34;101565.13;5006096;28;97153;-77
2021/09/14 03:26:04;;;;;;;;;;;;;;;18.16;59.91;101561.25;5013047;28;98031;-78
2021/09/14 03:28:30;;;;;;;;;;;;;;;18.01;60.30;101559.38;4992775;28;98816;-79
2021/09/14 03:30:57;;;;;;;;;;;;;;;18.03;60.57;101554.84;5001729;28;96729;-77
2021/09/14 03:33:23;;;;;;;;;;;;;;;18.06;60.16;101554.66;5013665;28;96701;-79
2021/09/14 03:35:51;;;;;;;;;;;;;;;17.99;60.41;101550.56;5013415;28;98143;-78
2021/09/14 03:38:17;;;;;;;;;;;;;;;18.05;59.97;101556.47;5010714;28;98852;-78
2021/09/14 03:40:44;;;;;;;;;;;;;;;18.00;60.21;101557.66;5009975;28;96641;-79
2021/09/14 03:43:12;;;;;;;;;;;;;;;17.95;60.51;101554.38;5014384;28;96600;-76
2021/09/14 03:45:39;;;;;;;;;;;;;;;18.00;60.19;101557.66;5007914;28;98209;-78
2021/09/14 03:48:05;;;;;;;;;;;;;;;18.16;59.87;101553.22;5005108;28;98804;-78
2021/09/14 03:50:31;;;;;;;;;;;;;;;18.04;59.93;101553.88;5002948;28;96873;-79
2021/09/14 03:52:59;;;;;;;;;;;;;;;18.08;59.83;101550.97;5005491;28;96830;-77
2021/09/14 03:55:25;;;;;;;;;;;;;;;18.15;59.70;101551.50;5001810;28;99400;-79
2021/09/14 03:57:51;;;;;;;;;;;;;;;18.19;59.52;101545.88;4995617;28;101606;-78
2021/09/14 04:00:18;;;;;;;;;;;;;;;18.10;59.64;101542.88;4988893;28;96807;-79
2021/09/14 04:02:46;;;;;;;;;;;;;;;18.09;59.38;101541.13;4981272;28;97332;-78
2021/09/14 04:05:37;;;;;;;;;;;;;;;18.15;59.44;101540.78;4996114;28;100924;-78
2021/09/14 04:10:49;;;;;;;;;;;;;;;17.88;60.11;101543.13;4996683;28;97215;-78
2021/09/14 04:13:15;;;;;;;;;;;;;;;17.96;60.12;101540.06;4977115;28;96927;-79
2021/09/14 04:15:42;;;;;;;;;;;;;;;17.98;60.47;101546.19;4976798;28;98538;-79
2021/09/14 04:18:10;;;;;;;;;;;;;;;17.97;60.33;101552.50;4977639;28;99135;-78
2021/09/14 04:20:36;;;;;;;;;;;;;;;17.97;60.33;101552.50;4990459;28;96773;-77
2021/09/14 04:23:02;;;;;;;;;;;;;;;17.99;60.20;101551.44;4997852;28;96889;-79
2021/09/14 04:25:30;;;;;;;;;;;;;;;17.95;60.08;101547.22;4998536;28;99285;-79
2021/09/14 04:27:56;;;;;;;;;;;;;;;18.00;60.21;101549.63;5000226;28;98953;-79
2021/09/14 04:30:22;;;;;;;;;;;;;;;18.06;59.91;101549.31;4999258;28;96952;-78
2021/09/14 04:32:49;;;;;;;;;;;;;;;18.16;59.94;101545.19;4980196;28;96757;-78
2021/09/14 04:35:15;;;;;;;;;;;;;;;18.17;59.43;101545.13;4996688;28;98234;-78
2021/09/14 04:37:41;;;;;;;;;;;;;;;18.10;59.43;101548.22;4998689;28;99052;-78
2021/09/14 04:40:08;;;;;;;;;;;;;;;18.05;59.44;101545.75;5001787;28;96878;-77
2021/09/14 04:42:35;;;;;;;;;;;;;;;18.02;59.65;101555.78;5005227;28;96846;-78
2021/09/14 04:45:02;;;;;;;;;;;;;;;18.07;59.59;101556.38;5010391;28;98986;-77
2021/09/14 04:47:28;;;;;;;;;;;;;;;17.98;59.54;101551.56;5001487;28;101045;-77
2021/09/14 04:49:54;;;;;;;;;;;;;;;17.88;60.12;101564.53;5001694;28;96707;-77
2021/09/14 04:52:21;;;;;;;;;;;;;;;17.86;60.31;101564.59;4999858;28;96912;-77
2021/09/14 04:54:47;;;;;;;;;;;;;;;17.84;60.38;101573.66;4999163;28;99601;-78
2021/09/14 04:57:13;;;;;;;;;;;;;;;17.84;60.53;101574.53;4998449;28;98911;-78
2021/09/14 04:59:41;;;;;;;;;;;;;;;17.95;60.26;101573.97;4985170;28;99074;-78
2021/09/14 05:02:07;;;;;;;;;;;;;;;17.89;60.22;101567.13;4997811;28;96876;-78
2021/09/14 05:04:33;;;;;;;;;;;;;;;17.85;60.56;101565.53;4997848;28;99398;-77
2021/09/14 05:07:00;;;;;;;;;;;;;;;17.98;60.08;101564.91;4998682;28;99969;-78
2021/09/14 05:09:26;;;;;;;;;;;;;;;18.00;59.86;101561.19;4999544;28;96918;-77
2021/09/14 05:11:52;;;;;;;;;;;;;;;18.10;59.59;101565.13;4998297;28;97145;-79
2021/09/14 05:14:18;;;;;;;;;;;;;;;18.21;59.42;101557.38;4997812;28;98887;-79
2021/09/14 05:16:46;;;;;;;;;;;;;;;18.22;59.34;101558.25;4998668;28;99089;-78
2021/09/14 05:19:13;;;;;;;;;;;;;;;18.26;58.96;101557.97;4999389;28;96904;-78
2021/09/14 05:21:46;;;;;;;;;;;;;;;18.31;58.91;101552.41;5000108;28;96943;-78
2021/09/14 05:24:12;;;;;;;;;;;;;;;18.40;59.17;101553.69;4996898;28;99348;-78
2021/09/14 05:26:39;;;;;;;;;;;;;;;18.47;58.89;101545.22;4980060;28;101075;-78
2021/09/14 05:29:05;;;;;;;;;;;;;;;18.60;58.34;101550.78;4979951;28;96708;-78
2021/09/14 05:31:33;;;;;;;;;;;;;;;18.63;58.21;101551.50;4994590;28;96932;-81
2021/09/14 05:34:02;;;;;;;;;;;;;;;18.77;57.94;101555.22;4999085;28;97844;-80
2021/09/14 05:36:28;;;;;;;;;;;;;;;18.76;57.89;101550.81;4998646;28;99103;-80
2021/09/14 05:38:54;;;;;;;;;;;;;;;18.82;58.26;101547.78;5000126;28;96720;-80
2021/09/14 05:41:20;;;;;;;;;;;;;;;18.90;57.99;101553.56;4998926;28;97010;-80
2021/09/14 05:43:47;;;;;;;;;;;;;;;19.00;57.73;101546.72;4998182;28;101894;-81
2021/09/14 05:46:13;;;;;;;;;;;;;;;19.08;57.69;101550.69;4999256;28;98040;-79
2021/09/14 05:48:39;;;;;;;;;;;;;;;19.17;57.36;101553.75;4996724;28;96974;-78
2021/09/14 05:51:07;;;;;;;;;;;;;;;19.20;57.37;101550.91;4995720;28;96829;-81
2021/09/14 05:53:34;;;;;;;;;;;;;;;19.40;57.12;101554.13;4984688;28;98261;-78
2021/09/14 05:56:01;;;;;;;;;;;;;;;19.56;56.57;101555.94;4987734;28;99210;-78
2021/09/14 05:58:27;;;;;;;;;;;;;;;19.60;56.14;101558.34;4988991;28;98641;-78
2021/09/14 06:00:55;;;;;;;;;;;;;;;19.74;55.45;101549.47;4990269;28;96925;-78
2021/09/14 06:03:21;;;;;;;;;;;;;;;19.92;55.46;101564.44;4984137;28;99074;-79
2021/09/14 06:05:47;;;;;;;;;;;;;;;19.94;54.87;101567.88;4977122;28;100936;-78
2021/09/14 06:08:15;;;;;;;;;;;;;;;20.07;54.82;101559.94;4990490;28;96847;-79
2021/09/14 06:10:41;;;;;;;;;;;;;;;20.12;55.04;101555.13;4993444;28;97625;-78
2021/09/14 06:13:08;;;;;;;;;;;;;;;20.14;55.08;101562.16;4991532;28;98976;-78
2021/09/14 06:15:34;;;;;;;;;;;;;;;20.32;54.63;101556.56;4990664;28;98757;-79
2021/09/14 06:18:03;;;;;;;;;;;;;;;20.39;54.43;101560.63;4989369;28;96802;-79
2021/09/14 06:20:30;;;;;;;;;;;;;;;20.51;53.96;101563.38;4991205;28;97565;-79
2021/09/14 06:22:56;;;;;;;;;;;;;;;20.67;53.56;101565.97;4989101;28;98422;-79
2021/09/14 06:25:24;;;;;;;;;;;;;;;20.65;53.29;101566.06;4986341;28;97770;-77
2021/09/14 06:28:00;;;;;;;;;;;;;;;20.56;53.41;101576.50;4991651;28;96787;-77
2021/09/14 06:30:26;;;;;;;;;;;;;;;20.60;53.19;101575.38;4983886;28;98579;-77
2021/09/14 06:32:54;;;;;;;;;;;;;;;20.79;52.99;101567.84;4999767;28;99107;-81
2021/09/14 06:35:21;;;;;;;;;;;;;;;20.82;52.73;101581.06;5012418;28;98979;-81
2021/09/14 06:37:47;;;;;;;;;;;;;;;20.82;51.55;101570.31;5006911;28;96899;-83
2021/09/14 06:40:14;;;;;;;;;;;;;;;21.05;50.09;101580.44;4989882;28;97127;-78
2021/09/14 06:42:42;;;;;;;;;;;;;;;20.60;50.03;101572.69;5005665;28;97071;-78
2021/09/14 06:45:10;;;;;;;;;;;;;;;20.90;49.91;101576.06;5002332;28;98770;-78
2021/09/14 06:47:36;;;;;;;;;;;;;;;20.93;49.19;101586.63;5005386;28;96775;-78
2021/09/14 06:50:02;;;;;;;;;;;;;;;21.24;48.43;101587.31;5012317;28;96746;-78
2021/09/14 06:52:29;;;;;;;;;;;;;;;21.01;48.82;101584.25;5003935;28;98881;-78
2021/09/14 06:54:55;;;;;;;;;;;;;;;21.48;47.66;101580.25;5005395;28;100535;-79
2021/09/14 06:57:22;;;;;;;;;;;;;;;21.40;47.20;101585.28;5003521;28;96810;-79
2021/09/14 06:59:50;;;;;;;;;;;;;;;21.33;47.41;101589.38;5002047;28;96869;-78
2021/09/14 07:02:17;;;;;;;;;;;;;;;21.46;46.93;101579.53;4999825;28;100087;-79
2021/09/14 07:04:43;;;;;;;;;;;;;;;21.55;46.81;101594.16;5001086;28;99142;-78
2021/09/14 07:07:09;;;;;;;;;;;;;;;21.81;46.35;101586.03;4999413;28;96750;-77
2021/09/14 07:09:36;;;;;;;;;;;;;;;21.80;46.13;101586.97;4995749;28;97516;-78
2021/09/14 07:12:05;;;;;;;;;;;;;;;21.99;46.06;101591.97;4995267;28;99271;-78
2021/09/14 07:14:32;;;;;;;;;;;;;;;21.92;45.71;101587.13;4987162;28;99408;-79
2021/09/14 07:16:59;;;;;;;;;;;;;;;22.11;44.60;101590.28;4997773;28;96861;-79
2021/09/14 07:19:25;;;;;;;;;;;;;;;22.21;44.36;101580.56;4998222;28;96807;-79
2021/09/14 07:21:52;;;;;;;;;;;;;;;21.40;45.39;101588.84;5000687;28;98933;-80
2021/09/14 07:24:18;;;;;;;;;;;;;;;21.70;45.25;101587.75;4996949;28;98940;-79
2021/09/14 07:26:44;;;;;;;;;;;;;;;22.12;44.55;101576.69;4995188;28;97004;-78
2021/09/14 07:29:11;;;;;;;;;;;;;;;22.01;45.30;101584.66;4992412;28;96876;-80
2021/09/14 07:31:40;;;;;;;;;;;;;;;22.11;44.76;101585.75;5006384;28;99250;-80
2021/09/14 07:34:08;;;;;;;;;;;;;;;22.15;44.84;101583.69;5002911;28;99569;-80
2021/09/14 07:36:34;;;;;;;;;;;;;;;22.53;43.87;101580.94;4987383;28;96844;-79
2021/09/14 07:39:02;;;;;;;;;;;;;;;22.62;43.71;101578.47;4998080;28;96864;-79
2021/09/14 07:41:28;;;;;;;;;;;;;;;22.64;43.15;101575.66;4994511;28;99560;-83
2021/09/14 07:43:55;;;;;;;;;;;;;;;22.90;42.78;101576.47;4997028;28;99153;-80
2021/09/14 07:46:21;;;;;;;;;;;;;;;23.35;41.80;101574.88;4994797;28;96980;-79
2021/09/14 07:48:49;;;;;;;;;;;;;;;23.62;41.49;101569.22;4993545;28;97362;-79
2021/09/14 07:51:17;;;;;;;;;;;;;;;22.89;42.60;101572.06;4986556;28;99054;-80
2021/09/14 07:53:43;;;;;;;;;;;;;;;23.27;41.64;101575.44;4994689;28;98928;-79
2021/09/14 07:56:10;;;;;;;;;;;;;;;23.27;41.82;101579.97;4995346;28;96709;-79
2021/09/14 07:58:36;;;;;;;;;;;;;;;23.45;41.60;101583.97;4990617;28;96926;-79
2021/09/14 08:01:02;;;;;;;;;;;;;;;23.17;42.35;101578.97;5013975;28;97642;-78
2021/09/14 08:03:29;;;;;;;;;;;;;;;23.34;41.70;101576.69;4991044;28;101056;-79
2021/09/14 08:05:55;;;;;;;;;;;;;;;23.16;42.28;101572.72;5002787;28;99217;-80
2021/09/14 08:08:23;;;;;;;;;;;;;;;22.93;43.21;101578.94;4982236;28;97852;-79
2021/09/14 08:10:49;;;;;;;;;;;;;;;23.04;43.13;101579.00;5000477;28;99401;-78
2021/09/14 08:13:15;;;;;;;;;;;;;;;23.45;42.14;101576.72;4998463;28;98929;-78
2021/09/14 08:15:42;;;;;;;;;;;;;;;23.47;42.15;101575.75;5003519;28;98046;-78
2021/09/14 08:18:08;;;;;;;;;;;;;;;23.24;42.90;101574.78;4997936;28;96844;-78
2021/09/14 08:20:34;;;;;;;;;;;;;;;22.88;43.29;101578.41;4994976;28;98602;-77
2021/09/14 08:23:01;;;;;;;;;;;;;;;23.11;43.06;101582.09;4986163;28;96867;-77
2021/09/14 08:25:29;;;;;;;;;;;;;;;22.79;43.64;101584.47;5012992;28;98917;-79
2021/09/14 08:27:57;;;;;;;;;;;;;;;23.30;42.70;101585.97;4999210;28;97081;-78
2021/09/14 08:30:23;;;;;;;;;;;;;;;23.72;42.02;101581.03;4999701;28;98185;-77
2021/09/14 08:32:51;;;;;;;;;;;;;;;23.32;42.81;101584.03;4983298;28;99885;-77
2021/09/14 08:35:17;;;;;;;;;;;;;;;23.18;43.37;101586.03;5008363;28;97142;-77
2021/09/14 08:37:43;;;;;;;;;;;;;;;23.66;42.06;101585.06;4997709;28;96924;-78
2021/09/14 08:40:10;;;;;;;;;;;;;;;23.60;42.63;101576.56;4998036;28;99417;-78
2021/09/14 08:42:38;;;;;;;;;;;;;;;23.64;42.22;101578.91;4991486;28;97058;-77
2021/09/14 08:45:06;;;;;;;;;;;;;;;23.96;41.90;101573.69;5006224;28;96805;-78
2021/09/14 08:47:32;;;;;;;;;;;;;;;23.66;42.47;101582.34;4993371;28;97770;-78
2021/09/14 08:49:58;;;;;;;;;;;;;;;23.52;42.50;101584.38;4978709;28;99295;-78
2021/09/14 08:52:25;;;;;;;;;;;;;;;23.65;42.76;101577.06;4991712;28;98977;-78
2021/09/14 08:54:52;;;;;;;;;;;;;;;24.23;41.37;101574.25;5003115;28;97221;-80
2021/09/14 08:57:18;;;;;;;;;;;;;;;24.34;41.58;101575.25;4999761;28;96923;-76
2021/09/14 08:59:47;;;;;;;;;;;;;;;24.36;41.60;101570.56;5008962;28;99538;-77
2021/09/14 09:02:16;;;;;;;;;;;;;;;24.27;40.93;101568.63;5016848;28;99075;-77
2021/09/14 09:04:54;;;;;;;;;;;;;;;24.31;41.00;101572.78;5022312;28;96765;-77
2021/09/14 09:07:27;;;;;;;;;;;;;;;24.69;40.19;101564.28;5021658;28;95923;-79
2021/09/14 09:09:53;;;;;;;;;;;;;;;24.27;41.07;101568.63;5018637;28;98169;-78
2021/09/14 09:12:21;;;;;;;;;;;;;;;24.47;40.55;101573.28;5020765;28;97724;-78
2021/09/14 09:14:48;;;;;;;;;;;;;;;24.36;40.64;101567.88;5020175;28;96534;-78
2021/09/14 09:17:15;;;;;;;;;;;;;;;24.49;40.64;101565.91;5010258;28;97700;-79
2021/09/14 09:19:42;;;;;;;;;;;;;;;24.65;40.20;101558.28;5022515;28;97837;-78
2021/09/14 09:22:11;;;;;;;;;;;;;;;24.98;39.54;101555.53;5019885;28;99337;-80
2021/09/14 09:24:45;;;;;;;;;;;;;;;24.78;39.98;101560.81;5017148;28;95899;-78
2021/09/14 09:27:12;;;;;;;;;;;;;;;24.70;40.23;101564.16;5021485;28;95973;-79
2021/09/14 09:29:38;;;;;;;;;;;;;;;24.65;39.80;101563.69;5017135;28;97836;-78
2021/09/14 09:32:06;;;;;;;;;;;;;;;24.93;39.87;101565.00;5019725;28;96553;-78
2021/09/14 09:34:33;;;;;;;;;;;;;;;24.70;39.83;101569.56;5011238;28;96851;-78
2021/09/14 09:37:03;;;;;;;;;;;;;;;24.80;39.78;101565.13;5002941;28;96896;-79
2021/09/14 09:39:48;;;;;;;;;;;;;;;24.21;39.96;101556.47;5012454;28;99378;-77
2021/09/14 09:42:20;;;;;;;;;;;;;;;24.36;40.20;101551.66;5002512;28;97751;-77
2021/09/14 09:44:54;;;;;;;;;;;;;;;24.40;39.66;101554.00;5004668;28;96786;-79
2021/09/14 09:47:22;;;;;;;;;;;;;;;24.31;40.02;101545.78;4997216;28;96774;-79
2021/09/14 09:49:48;;;;;;;;;;;;;;;24.80;39.25;101554.31;4997195;28;98880;-79
2021/09/14 09:52:15;;;;;;;;;;;;;;;25.14;38.88;101551.56;4977702;28;98627;-78
2021/09/14 09:54:43;;;;;;;;;;;;;;;24.73;39.30;101546.84;4997636;28;96815;-77
2021/09/14 09:57:09;;;;;;;;;;;;;;;24.53;39.37;101548.47;4995143;28;96809;-78
2021/09/14 09:59:36;;;;;;;;;;;;;;;24.86;39.35;101543.00;4997690;28;101152;-79
2021/09/14 10:02:11;;;;;;;;;;;;;;;24.98;38.93;101542.00;4997975;28;99150;-78
2021/09/14 10:04:43;;;;;;;;;;;;;;;24.78;39.76;101540.06;4997886;28;97640;-78
2021/09/14 10:07:10;;;;;;;;;;;;;;;25.14;39.40;101543.44;5005963;28;97546;-78
2021/09/14 10:09:36;;;;;;;;;;;;;;;25.07;38.55;101544.94;4996110;28;98950;-78
2021/09/14 10:12:03;;;;;;;;;;;;;;;23.91;41.21;101553.44;4992251;28;98092;-79
2021/09/14 10:14:29;;;;;;;;;;;;;;;24.90;39.37;101546.31;4995935;28;97303;-78
2021/09/14 10:17:04;;;;;;;;;;;;;;;25.01;39.62;101547.16;4998169;28;96803;-82
2021/09/14 10:19:31;;;;;;;;;;;;;;;24.99;38.69;101546.44;4990557;28;98967;-77
2021/09/14 10:22:04;;;;;;;;;;;;;;;25.06;39.16;101551.31;4996128;28;99217;-78
2021/09/14 10:24:31;;;;;;;;;;;;;;;25.13;38.97;101550.69;4995671;28;98012;-78
2021/09/14 10:27:05;;;;;;;;;;;;;;;25.41;38.64;101550.06;4996959;28;98026;-78
2021/09/14 10:29:32;;;;;;;;;;;;;;;24.47;39.52;101541.72;4989839;28;97686;-78
2021/09/14 10:32:00;;;;;;;;;;;;;;;24.96;39.47;101538.56;4997382;28;103923;-78
2021/09/14 10:34:26;;;;;;;;;;;;;;;25.16;39.10;101539.59;4995922;28;97502;-78
2021/09/14 10:37:00;;;;;;;;;;;;;;;24.91;39.18;101538.09;4999276;28;97216;-78
2021/09/14 10:39:28;;;;;;;;;;;;;;;24.63;39.72;101535.91;4998065;28;100643;-78
2021/09/14 10:41:55;;;;;;;;;;;;;;;24.62;40.26;101535.06;4996607;28;98850;-78
2021/09/14 10:44:26;;;;;;;;;;;;;;;24.29;40.68;101543.19;4994761;28;96768;-80
2021/09/14 10:47:04;;;;;;;;;;;;;;;24.30;40.57;101528.72;5001841;28;97127;-78
2021/09/14 10:49:41;;;;;;;;;;;;;;;24.42;40.24;101533.13;4997650;28;99657;-79
2021/09/14 10:52:08;;;;;;;;;;;;;;;24.36;41.03;101532.75;4990367;28;99585;-78
2021/09/14 10:54:42;;;;;;;;;;;;;;;23.85;41.56;101525.09;4997140;28;96836;-78
2021/09/14 10:57:09;;;;;;;;;;;;;;;24.79;40.33;101530.13;4996774;28;96948;-77
2021/09/14 10:59:35;;;;;;;;;;;;;;;24.62;40.41;101531.50;4996937;28;99024;-79
2021/09/14 11:02:03;;;;;;;;;;;;;;;25.04;39.67;101534.38;4995930;28;98869;-78
2021/09/14 11:04:29;;;;;;;;;;;;;;;25.07;38.88;101528.72;4994867;28;96968;-78
2021/09/14 11:06:56;;;;;;;;;;;;;;;25.27;38.63;101525.19;5002137;28;97564;-79
2021/09/14 11:09:24;;;;;;;;;;;;;;;24.93;39.63;101528.03;4996278;28;98980;-79
2021/09/14 11:11:54;;;;;;;;;;;;;;;25.07;39.32;101513.34;4996024;28;97126;-79
2021/09/14 11:14:21;;;;;;;;;;;;;;;25.24;39.13;101518.19;4992149;28;97115;-80
2021/09/14 11:16:47;;;;;;;;;;;;;;;25.07;39.24;101526.00;4996063;28;98533;-79
2021/09/14 11:19:14;;;;;;;;;;;;;;;25.10;38.70;101523.91;4996307;28;101546;-80
2021/09/14 11:21:44;;;;;;;;;;;;;;;25.10;38.70;101529.31;4996216;28;100660;-80
2021/09/14 11:24:11;;;;;;;;;;;;;;;24.87;39.77;101523.09;4981875;28;97504;-80
2021/09/14 11:26:39;;;;;;;;;;;;;;;24.97;39.64;101517.78;4997285;28;96904;-81
2021/09/14 11:29:06;;;;;;;;;;;;;;;25.38;38.42;101511.59;5003066;28;101481;-79
2021/09/14 11:31:34;;;;;;;;;;;;;;;25.46;39.21;101519.06;4994106;28;99208;-79
2021/09/14 11:34:01;;;;;;;;;;;;;;;25.57;39.12;101522.59;4997247;28;97892;-79
2021/09/14 11:36:28;;;;;;;;;;;;;;;25.10;39.53;101518.47;4994388;28;97030;-79
2021/09/14 11:38:58;;;;;;;;;;;;;;;25.00;39.77;101507.59;4991655;28;99308;-78
2021/09/14 11:41:30;;;;;;;;;;;;;;;25.45;38.71;101501.97;4988464;28;98884;-78
2021/09/14 11:43:58;;;;;;;;;;;;;;;25.60;38.49;101497.13;4994246;28;104600;-78
2021/09/14 11:46:28;;;;;;;;;;;;;;;24.65;40.72;101506.94;4997195;28;96854;-78
2021/09/14 11:48:55;;;;;;;;;;;;;;;24.80;39.90;101494.84;4987187;28;97668;-79
2021/09/14 11:51:22;;;;;;;;;;;;;;;25.16;39.48;101492.75;5002839;28;99282;-78
2021/09/14 11:53:50;;;;;;;;;;;;;;;24.91;40.12;101488.56;4993102;28;97100;-79
2021/09/14 11:56:17;;;;;;;;;;;;;;;25.37;39.46;101486.38;4996669;28;97395;-80
2021/09/14 11:58:44;;;;;;;;;;;;;;;25.22;39.30;101484.97;5000036;28;99260;-78
2021/09/14 12:01:10;;;;;;;;;;;;;;;25.97;38.01;101482.06;4994469;28;101321;-78
2021/09/14 12:03:39;;;;;;;;;;;;;;;26.16;37.72;101478.56;4989024;28;96811;-79
2021/09/14 12:06:06;;;;;;;;;;;;;;;25.41;39.19;101484.25;4994512;28;96901;-78
2021/09/14 12:08:34;;;;;;;;;;;;;;;24.97;39.26;101482.66;4994670;28;99046;-78
2021/09/14 12:11:00;;;;;;;;;;;;;;;25.14;38.84;101475.84;4999625;28;98853;-78
2021/09/14 12:13:27;;;;;;;;;;;;;;;25.78;38.00;101479.25;4995230;28;96736;-79
2021/09/14 12:16:05;;;;;;;;;;;;;;;25.77;38.25;101470.28;4995092;28;96936;-79
2021/09/14 12:18:31;;;;;;;;;;;;;;;25.51;38.14;101468.97;4982581;28;102002;-79
2021/09/14 12:20:59;;;;;;;;;;;;;;;24.88;39.29;101476.13;4994881;28;99032;-78
2021/09/14 12:23:25;;;;;;;;;;;;;;;25.50;39.12;101467.25;4998066;28;97493;-79
2021/09/14 12:25:51;;;;;;;;;;;;;;;25.36;38.47;101464.88;5000350;28;96946;-80
2021/09/14 12:28:18;;;;;;;;;;;;;;;25.63;37.92;101461.66;4999799;28;99023;-78
2021/09/14 12:30:44;;;;;;;;;;;;;;;26.14;36.52;101456.16;4997737;28;98111;-78
2021/09/14 12:33:11;;;;;;;;;;;;;;;25.95;37.14;101453.41;4997203;28;97581;-79
2021/09/14 12:35:39;;;;;;;;;;;;;;;26.13;37.13;101465.28;5000931;28;96839;-79
2021/09/14 12:38:08;;;;;;;;;;;;;;;25.20;38.58;101459.94;5000850;28;99700;-79
2021/09/14 12:40:34;;;;;;;;;;;;;;;25.57;37.75;101456.75;4996769;28;99584;-78
2021/09/14 12:43:00;;;;;;;;;;;;;;;25.99;37.27;101452.97;4993345;28;98429;-78
2021/09/14 12:45:27;;;;;;;;;;;;;;;26.29;36.97;101454.81;4997950;28;96990;-78
2021/09/14 12:47:53;;;;;;;;;;;;;;;26.64;35.80;101453.47;4998242;28;98627;-78
2021/09/14 12:50:19;;;;;;;;;;;;;;;26.46;35.76;101446.00;4999688;28;98685;-79
2021/09/14 12:52:46;;;;;;;;;;;;;;;27.14;34.82;101446.06;4999295;28;96817;-79
2021/09/14 12:55:14;;;;;;;;;;;;;;;27.36;34.95;101448.47;4997242;28;96953;-81
2021/09/14 12:57:41;;;;;;;;;;;;;;;27.45;34.60;101442.16;4997039;28;98929;-80
2021/09/14 13:00:08;;;;;;;;;;;;;;;26.81;35.55;101437.34;4980835;28;98064;-79
2021/09/14 13:02:34;;;;;;;;;;;;;;;27.45;34.24;101435.88;4988413;28;96807;-79
2021/09/14 13:05:00;;;;;;;;;;;;;;;27.68;33.81;101446.28;4980508;28;96962;-79
2021/09/14 13:07:27;;;;;;;;;;;;;;;27.27;34.70;101442.06;4980654;28;99291;-79
2021/09/14 13:09:53;;;;;;;;;;;;;;;27.95;34.08;101437.31;4980779;28;98227;-79
2021/09/14 13:12:28;;;;;;;;;;;;;;;28.48;32.36;101437.47;4986405;28;96792;-78
2021/09/14 13:17:38;;;;;;;;;;;;;;;28.18;32.65;101431.50;4984250;28;97038;-79
2021/09/14 13:20:05;;;;;;;;;;;;;;;27.46;32.95;101432.16;4981827;28;97323;-82
2021/09/14 13:22:31;;;;;;;;;;;;;;;27.28;33.99;101427.50;4982307;28;96765;-76